createdAt,value
2022-09-12T00:01:51.573Z,2.90
2022-09-12T00:04:18.400Z,2.83
2022-09-12T00:06:45.329Z,2.50
2022-09-12T00:09:13.870Z,3.03
2022-09-12T00:11:42.964Z,3.40
2022-09-12T00:14:12.177Z,2.33
2022-09-12T00:16:39.561Z,2.70
2022-09-12T00:19:07.233Z,2.28
2022-09-12T00:21:35.738Z,2.28
2022-09-12T00:24:02.931Z,3.42
2022-09-12T00:26:29.776Z,2.72
2022-09-12T00:28:56.549Z,2.90
2022-09-12T00:31:25.358Z,2.20
2022-09-12T00:33:53.654Z,2.38
2022-09-12T00:36:22.992Z,2.28
2022-09-12T00:38:50.841Z,3.25
2022-09-12T00:41:21.279Z,2.63
2022-09-12T00:44:23.379Z,2.80
2022-09-12T00:47:13.804Z,2.50
2022-09-12T00:49:51.698Z,4.87
2022-09-12T00:52:21.255Z,3.13
2022-09-12T00:54:53.356Z,3.08
2022-09-12T00:57:22.523Z,2.90
2022-09-12T00:59:58.064Z,5.60
2022-09-12T01:02:24.908Z,3.60
2022-09-12T01:04:52.335Z,3.72
2022-09-12T01:07:19.865Z,5.70
2022-09-12T01:09:46.818Z,3.92
2022-09-12T01:12:15.062Z,6.47
2022-09-12T01:14:42.205Z,7.60
2022-09-12T01:17:13.225Z,7.75
2022-09-12T01:22:46.500Z,10.40
2022-09-12T01:25:38.960Z,7.78
2022-09-12T01:28:29.455Z,8.38
2022-09-12T01:31:13.957Z,6.35
2022-09-12T01:33:46.638Z,6.45
2022-09-12T01:36:38.209Z,7.53
2022-09-12T01:39:09.760Z,6.20
2022-09-12T01:41:50.194Z,5.75
2022-09-12T01:44:29.234Z,7.10
2022-09-12T01:47:24.114Z,4.47
2022-09-12T01:50:13.645Z,5.13
2022-09-12T01:52:49.611Z,4.60
2022-09-12T01:55:20.118Z,5.53
2022-09-12T01:57:54.994Z,3.97
2022-09-12T02:00:21.940Z,5.47
2022-09-12T02:03:15.251Z,4.25
2022-09-12T02:05:50.254Z,4.05
2022-09-12T02:08:32.038Z,5.40
2022-09-12T02:11:06.362Z,6.13
2022-09-12T02:13:48.276Z,8.23
2022-09-12T02:16:19.235Z,4.57
2022-09-12T02:21:14.096Z,6.20
2022-09-12T02:23:44.030Z,5.03
2022-09-12T02:26:17.319Z,7.13
2022-09-12T02:28:44.227Z,7.72
2022-09-12T02:31:23.991Z,9.18
2022-09-12T02:34:10.840Z,9.75
2022-09-12T02:36:55.049Z,5.63
2022-09-12T02:39:21.843Z,8.65
2022-09-12T02:41:51.339Z,10.27
2022-09-12T02:44:18.454Z,8.82
2022-09-12T02:46:49.016Z,8.20
2022-09-12T02:49:16.386Z,6.82
2022-09-12T02:51:43.159Z,4.90
2022-09-12T02:54:10.685Z,5.63
2022-09-12T02:56:42.447Z,4.88
2022-09-12T02:59:11.802Z,4.50
2022-09-12T03:01:47.387Z,3.78
2022-09-12T03:04:46.826Z,4.28
2022-09-12T03:07:37.668Z,6.68
2022-09-12T03:10:10.397Z,3.60
2022-09-12T03:12:52.237Z,4.65
2022-09-12T03:15:32.139Z,2.80
2022-09-12T03:18:27.167Z,3.65
2022-09-12T03:20:57.657Z,4.15
2022-09-12T03:23:29.174Z,3.33
2022-09-12T03:26:13.061Z,5.32
2022-09-12T03:28:39.973Z,6.43
2022-09-12T03:31:15.315Z,3.30
2022-09-12T03:33:42.357Z,4.55
2022-09-12T03:36:21.580Z,3.03
2022-09-12T03:38:48.438Z,4.28
2022-09-12T03:41:15.288Z,2.72
2022-09-12T03:43:42.108Z,3.00
2022-09-12T03:46:08.861Z,2.72
2022-09-12T03:48:35.975Z,3.28
2022-09-12T03:51:05.387Z,4.07
2022-09-12T03:53:32.555Z,3.00
2022-09-12T03:55:59.425Z,3.60
2022-09-12T03:58:30.573Z,2.60
2022-09-12T04:00:57.497Z,2.88
2022-09-12T04:03:24.241Z,2.15
2022-09-12T04:05:51.012Z,3.47
2022-09-12T04:08:17.758Z,3.55
2022-09-12T04:10:44.582Z,1.90
2022-09-12T04:13:11.300Z,2.60
2022-09-12T04:15:38.126Z,2.70
2022-09-12T04:18:06.099Z,4.78
2022-09-12T04:20:33.404Z,2.97
2022-09-12T04:23:00.061Z,2.38
2022-09-12T04:25:27.230Z,3.35
2022-09-12T04:27:53.932Z,1.90
2022-09-12T04:30:20.702Z,1.83
2022-09-12T04:32:47.441Z,1.40
2022-09-12T04:35:14.297Z,4.10
2022-09-12T04:37:41.050Z,1.50
2022-09-12T04:40:08.496Z,0.75
2022-09-12T04:42:35.251Z,1.10
2022-09-12T04:45:02.022Z,1.00
2022-09-12T04:47:28.739Z,0.95
2022-09-12T04:49:55.511Z,0.88
2022-09-12T04:52:22.264Z,1.20
2022-09-12T04:54:48.981Z,1.30
2022-09-12T04:57:15.862Z,0.80
2022-09-12T04:59:42.692Z,0.80
2022-09-12T05:02:09.464Z,0.60
2022-09-12T05:04:36.307Z,0.90
2022-09-12T05:07:04.316Z,0.40
2022-09-12T05:09:31.171Z,0.70
2022-09-12T05:12:04.226Z,0.82
2022-09-12T05:14:33.187Z,1.38
2022-09-12T05:17:01.672Z,0.73
2022-09-12T05:19:30.512Z,1.27
2022-09-12T05:21:57.300Z,0.60
2022-09-12T05:24:24.725Z,0.80
2022-09-12T05:26:51.879Z,0.63
2022-09-12T05:29:19.061Z,0.75
2022-09-12T05:31:45.931Z,0.40
2022-09-12T05:34:12.751Z,0.40
2022-09-12T05:36:39.486Z,0.50
2022-09-12T05:39:06.379Z,0.90
2022-09-12T05:41:34.192Z,1.52
2022-09-12T05:44:03.949Z,0.57
2022-09-12T05:46:40.040Z,0.60
2022-09-12T05:49:09.019Z,1.63
2022-09-12T05:51:40.937Z,1.15
2022-09-12T05:54:09.678Z,0.98
2022-09-12T05:56:43.411Z,1.10
2022-09-12T05:59:16.137Z,0.82
2022-09-12T06:01:43.050Z,0.80
2022-09-12T06:04:09.930Z,0.60
2022-09-12T06:06:41.883Z,0.95
2022-09-12T06:09:09.230Z,1.85
2022-09-12T06:11:37.415Z,0.63
2022-09-12T06:14:04.799Z,0.73
2022-09-12T06:16:33.277Z,3.22
2022-09-12T06:19:02.800Z,1.67
2022-09-12T06:21:34.542Z,1.52
2022-09-12T06:24:02.035Z,1.10
2022-09-12T06:26:29.319Z,0.45
2022-09-12T06:28:57.393Z,1.48
2022-09-12T06:31:30.712Z,1.33
2022-09-12T06:34:01.081Z,0.40
2022-09-12T06:36:36.509Z,0.95
2022-09-12T06:39:08.233Z,0.47
2022-09-12T06:41:35.042Z,0.52
2022-09-12T06:44:02.253Z,0.70
2022-09-12T06:46:29.297Z,0.88
2022-09-12T06:48:56.448Z,0.50
2022-09-12T06:51:23.318Z,0.60
2022-09-12T06:53:50.411Z,0.98
2022-09-12T06:56:20.091Z,0.80
2022-09-12T06:58:48.220Z,0.70
2022-09-12T07:01:19.595Z,1.52
2022-09-12T07:03:55.895Z,0.60
2022-09-12T07:06:29.845Z,0.90
2022-09-12T07:08:58.682Z,0.60
2022-09-12T07:11:27.935Z,0.75
2022-09-12T07:13:56.584Z,0.82
2022-09-12T07:16:23.892Z,0.95
2022-09-12T07:18:55.880Z,1.80
2022-09-12T07:21:23.099Z,0.68
2022-09-12T07:23:51.853Z,0.47
2022-09-12T07:26:19.044Z,1.58
2022-09-12T07:28:46.027Z,0.43
2022-09-12T07:31:16.102Z,0.35
2022-09-12T07:33:43.681Z,0.50
2022-09-12T07:36:16.083Z,0.40
2022-09-12T07:38:43.801Z,0.47
2022-09-12T07:41:15.381Z,0.40
2022-09-12T07:43:42.252Z,2.47
2022-09-12T07:46:09.651Z,2.38
2022-09-12T07:48:36.945Z,0.50
2022-09-12T07:51:06.265Z,0.50
2022-09-12T07:53:38.738Z,0.52
2022-09-12T07:56:06.829Z,0.50
2022-09-12T07:58:35.104Z,0.40
2022-09-12T08:01:09.718Z,0.85
2022-09-12T08:03:37.073Z,1.55
2022-09-12T08:06:15.658Z,0.65
2022-09-12T08:08:43.377Z,0.55
2022-09-12T08:11:12.934Z,0.50
2022-09-12T08:13:41.408Z,0.90
2022-09-12T08:16:18.800Z,0.60
2022-09-12T08:18:45.789Z,0.65
2022-09-12T08:21:17.133Z,1.17
2022-09-12T08:23:44.577Z,1.58
2022-09-12T08:26:12.171Z,0.45
2022-09-12T08:28:43.377Z,0.40
2022-09-12T08:31:14.958Z,0.73
2022-09-12T08:33:41.844Z,0.50
2022-09-12T08:36:28.187Z,3.40
2022-09-12T08:39:00.596Z,0.57
2022-09-12T08:41:39.097Z,0.30
2022-09-12T08:44:30.698Z,0.38
2022-09-12T08:47:09.461Z,1.17
2022-09-12T08:49:47.412Z,0.10
2022-09-12T08:52:22.401Z,0.45
2022-09-12T08:54:50.096Z,0.35
2022-09-12T08:57:17.280Z,0.20
2022-09-12T08:59:45.533Z,0.20
2022-09-12T09:02:27.250Z,0.10
2022-09-12T09:05:49.591Z,0.10
2022-09-12T09:08:26.860Z,0.00
2022-09-12T09:11:16.079Z,0.10
2022-09-12T09:14:38.287Z,0.10
2022-09-12T09:17:11.400Z,0.10
2022-09-12T09:19:42.039Z,0.10
2022-09-12T09:22:17.235Z,0.20
2022-09-12T09:24:48.530Z,0.10
2022-09-12T09:27:42.806Z,0.10
2022-09-12T09:30:17.891Z,0.00
2022-09-12T09:32:48.983Z,0.32
2022-09-12T09:35:41.587Z,0.20
2022-09-12T09:38:35.070Z,0.00
2022-09-12T09:41:42.890Z,0.20
2022-09-12T09:44:09.872Z,2.28
2022-09-12T09:46:36.674Z,0.10
2022-09-12T09:49:05.308Z,1.02
2022-09-12T09:51:37.513Z,0.10
2022-09-12T09:54:05.090Z,0.15
2022-09-12T09:56:37.203Z,0.10
2022-09-12T09:59:11.947Z,0.30
2022-09-12T10:02:14.137Z,2.25
2022-09-12T10:04:53.267Z,0.10
2022-09-12T10:07:21.858Z,0.17
2022-09-12T10:10:16.231Z,0.20
2022-09-12T10:12:43.783Z,1.35
2022-09-12T10:15:26.550Z,0.10
2022-09-12T10:17:55.725Z,0.10
2022-09-12T10:20:41.492Z,0.50
2022-09-12T10:23:37.814Z,0.43
2022-09-12T10:26:09.953Z,0.10
2022-09-12T10:28:54.465Z,0.20
2022-09-12T10:31:29.586Z,0.10
2022-09-12T10:33:58.884Z,0.10
2022-09-12T10:36:26.866Z,0.25
2022-09-12T10:39:00.698Z,0.10
2022-09-12T10:41:36.230Z,0.10
2022-09-12T10:44:08.162Z,0.20
2022-09-12T10:46:35.047Z,0.32
2022-09-12T10:49:24.425Z,0.05
2022-09-12T10:51:54.080Z,1.33
2022-09-12T10:54:24.740Z,0.22
2022-09-12T10:57:01.960Z,0.35
2022-09-12T11:00:06.060Z,0.28
2022-09-12T11:02:51.082Z,0.10
2022-09-12T11:05:46.589Z,1.27
2022-09-12T11:08:41.216Z,0.63
2022-09-12T11:11:14.410Z,0.20
2022-09-12T11:13:57.608Z,0.85
2022-09-12T11:16:43.193Z,0.20
2022-09-12T11:19:48.173Z,0.80
2022-09-12T11:22:36.187Z,0.35
2022-09-12T11:25:20.641Z,0.15
2022-09-12T11:28:25.128Z,0.10
2022-09-12T11:31:03.015Z,0.22
2022-09-12T11:33:39.671Z,0.30
2022-09-12T11:36:21.264Z,0.60
2022-09-12T11:38:53.024Z,0.47
2022-09-12T11:41:31.428Z,0.20
2022-09-12T11:44:16.487Z,0.15
2022-09-12T11:46:46.703Z,0.60
2022-09-12T11:49:26.830Z,0.30
2022-09-12T11:52:14.271Z,1.40
2022-09-12T11:54:40.995Z,1.20
2022-09-12T11:57:45.867Z,0.88
2022-09-12T12:00:19.051Z,1.30
2022-09-12T12:03:07.231Z,0.30
2022-09-12T12:05:45.071Z,0.47
2022-09-12T12:08:12.333Z,0.30
2022-09-12T12:10:41.673Z,0.20
2022-09-12T12:13:21.828Z,0.10
2022-09-12T12:15:52.081Z,0.85
2022-09-12T12:18:26.902Z,0.10
2022-09-12T12:20:54.817Z,0.55
2022-09-12T12:23:34.200Z,0.00
2022-09-12T12:26:03.701Z,0.20
2022-09-12T12:28:42.999Z,0.47
2022-09-12T12:31:11.389Z,0.25
2022-09-12T12:33:38.109Z,0.20
2022-09-12T12:36:09.588Z,0.47
2022-09-12T12:38:40.967Z,0.35
2022-09-12T12:41:16.908Z,0.10
2022-09-12T12:43:50.364Z,0.10
2022-09-12T12:46:22.522Z,0.70
2022-09-12T12:49:11.579Z,0.40
2022-09-12T12:51:53.616Z,1.20
2022-09-12T12:54:30.412Z,0.28
2022-09-12T12:57:23.120Z,0.20
2022-09-12T12:59:54.201Z,0.55
2022-09-12T13:02:25.790Z,0.22
2022-09-12T13:04:52.969Z,0.30
2022-09-12T13:07:30.246Z,0.60
2022-09-12T13:09:58.180Z,0.20
2022-09-12T13:12:27.716Z,0.25
2022-09-12T13:14:55.699Z,0.20
2022-09-12T13:17:33.767Z,0.13
2022-09-12T13:20:34.009Z,0.28
2022-09-12T13:23:00.923Z,0.10
2022-09-12T13:25:37.389Z,0.30
2022-09-12T13:28:15.034Z,2.10
2022-09-12T13:31:20.417Z,0.93
2022-09-12T13:33:49.705Z,0.00
2022-09-12T13:36:34.115Z,0.10
2022-09-12T13:39:10.503Z,0.77
2022-09-12T13:41:49.426Z,0.75
2022-09-12T13:44:18.849Z,0.10
2022-09-12T13:46:46.054Z,0.20
2022-09-12T13:49:31.411Z,0.55
2022-09-12T13:52:08.395Z,0.10
2022-09-12T13:54:40.375Z,0.00
2022-09-12T13:57:07.174Z,0.65
2022-09-12T13:59:41.182Z,0.10
2022-09-12T14:02:20.251Z,0.28
2022-09-12T14:05:07.381Z,0.00
2022-09-12T14:07:58.430Z,0.85
2022-09-12T14:10:34.765Z,0.15
2022-09-12T14:13:05.610Z,0.57
2022-09-12T14:15:57.495Z,0.30
2022-09-12T14:18:29.340Z,0.40
2022-09-12T14:20:57.721Z,2.28
2022-09-12T14:23:32.290Z,1.92
2022-09-12T14:26:02.621Z,0.80
2022-09-12T14:28:31.168Z,0.55
2022-09-12T14:30:58.966Z,1.65
2022-09-12T14:33:25.952Z,0.93
2022-09-12T14:36:26.939Z,2.95
2022-09-12T14:38:56.789Z,2.67
2022-09-12T14:41:33.102Z,0.38
2022-09-12T14:44:01.678Z,0.80
2022-09-12T14:46:47.718Z,0.68
2022-09-12T14:49:16.344Z,1.02
2022-09-12T14:51:51.181Z,2.63
2022-09-12T14:54:30.578Z,1.17
2022-09-12T14:57:04.226Z,0.95
2022-09-12T14:59:39.986Z,1.45
2022-09-12T15:02:22.855Z,1.48
2022-09-12T15:04:53.898Z,0.52
2022-09-12T15:10:27.648Z,1.25
2022-09-12T15:13:09.833Z,0.40
2022-09-12T15:15:37.925Z,0.57
2022-09-12T15:18:06.739Z,0.85
2022-09-12T15:20:38.291Z,1.65
2022-09-12T15:23:07.790Z,0.73
2022-09-12T15:25:34.498Z,1.45
2022-09-12T15:28:02.122Z,1.30
2022-09-12T15:30:28.942Z,1.65
2022-09-12T15:32:55.765Z,0.20
2022-09-12T15:35:25.127Z,0.40
2022-09-12T15:37:52.455Z,1.75
2022-09-12T15:40:19.270Z,0.35
2022-09-12T15:42:46.127Z,2.28
2022-09-12T15:45:22.898Z,0.20
2022-09-12T15:47:49.736Z,0.70
2022-09-12T15:50:16.608Z,0.57
2022-09-12T15:52:43.611Z,1.67
2022-09-12T15:55:16.324Z,0.60
2022-09-12T15:57:43.208Z,2.05
2022-09-12T16:00:10.632Z,0.50
2022-09-12T16:02:40.604Z,1.13
2022-09-12T16:05:12.600Z,0.75
2022-09-12T16:07:39.373Z,0.35
2022-09-12T16:10:06.575Z,0.30
2022-09-12T16:12:33.340Z,1.17
2022-09-12T16:15:00.305Z,1.73
2022-09-12T16:17:27.254Z,0.32
2022-09-12T16:19:53.990Z,1.70
2022-09-12T16:22:20.743Z,2.00
2022-09-12T16:24:47.476Z,2.85
2022-09-12T16:27:14.318Z,1.38
2022-09-12T16:29:41.363Z,1.55
2022-09-12T16:32:08.309Z,1.67
2022-09-12T16:34:35.046Z,0.75
2022-09-12T16:37:02.454Z,0.68
2022-09-12T16:39:29.197Z,1.88
2022-09-12T16:41:55.981Z,0.90
2022-09-12T16:44:22.672Z,2.47
2022-09-12T16:46:51.170Z,1.17
2022-09-12T16:49:17.930Z,2.92
2022-09-12T16:51:47.518Z,1.88
2022-09-12T16:54:15.747Z,1.80
2022-09-12T16:56:42.575Z,3.20
2022-09-12T16:59:12.206Z,4.68
2022-09-12T17:01:39.033Z,2.55
2022-09-12T17:04:06.735Z,4.85
2022-09-12T17:06:33.966Z,3.03
2022-09-12T17:09:02.811Z,2.13
2022-09-12T17:11:36.491Z,1.02
2022-09-12T17:14:08.781Z,3.33
2022-09-12T17:16:40.768Z,3.80
2022-09-12T17:19:08.258Z,2.03
2022-09-12T17:21:35.401Z,3.08
2022-09-12T17:24:03.379Z,1.70
2022-09-12T17:26:30.294Z,3.42
2022-09-12T17:28:57.095Z,2.58
2022-09-12T17:31:23.853Z,2.83
2022-09-12T17:33:50.677Z,2.83
2022-09-12T17:36:18.337Z,3.15
2022-09-12T17:38:46.167Z,3.53
2022-09-12T17:41:16.115Z,2.17
2022-09-12T17:43:43.966Z,4.85
2022-09-12T17:46:10.750Z,4.28
2022-09-12T17:48:37.850Z,6.40
2022-09-12T17:51:25.054Z,1.23
2022-09-12T17:53:59.186Z,3.38
2022-09-12T17:56:28.069Z,2.72
2022-09-12T17:58:58.913Z,1.58
2022-09-12T18:01:45.923Z,2.72
2022-09-12T18:04:12.834Z,1.77
2022-09-12T18:06:40.879Z,5.88
2022-09-12T18:09:09.498Z,3.45
2022-09-12T18:11:36.423Z,3.17
2022-09-12T18:14:03.221Z,2.22
2022-09-12T18:16:31.514Z,1.25
2022-09-12T18:19:01.557Z,2.00
2022-09-12T18:21:29.209Z,2.40
2022-09-12T18:23:59.621Z,1.05
2022-09-12T18:26:27.979Z,3.15
2022-09-12T18:28:55.073Z,2.20
2022-09-12T18:31:24.431Z,2.05
2022-09-12T18:33:51.904Z,1.80
2022-09-12T18:36:19.356Z,3.45
2022-09-12T18:38:46.426Z,2.65
2022-09-12T18:41:15.814Z,1.52
2022-09-12T18:43:43.200Z,3.53
2022-09-12T18:46:12.477Z,1.77
2022-09-12T18:48:39.414Z,3.75
2022-09-12T18:51:20.767Z,4.57
2022-09-12T18:53:53.021Z,4.15
2022-09-12T18:56:21.150Z,1.83
2022-09-12T18:58:52.787Z,2.70
2022-09-12T19:01:23.747Z,3.83
2022-09-12T19:06:29.191Z,3.72
2022-09-12T19:08:57.419Z,4.90
2022-09-12T19:11:26.007Z,3.92
2022-09-12T19:13:53.526Z,1.98
2022-09-12T19:16:22.962Z,1.88
2022-09-12T19:18:53.535Z,1.13
2022-09-12T19:21:23.157Z,2.78
2022-09-12T19:23:50.575Z,1.30
2022-09-12T19:26:19.053Z,1.55
2022-09-12T19:28:46.275Z,4.05
2022-09-12T19:31:15.636Z,3.17
2022-09-12T19:33:42.589Z,2.13
2022-09-12T19:36:27.607Z,3.13
2022-09-12T19:39:00.365Z,3.00
2022-09-12T19:41:27.625Z,4.20
2022-09-12T19:43:56.356Z,1.80
2022-09-12T19:46:24.348Z,3.05
2022-09-12T19:48:52.484Z,2.17
2022-09-12T19:51:20.625Z,2.35
2022-09-12T19:53:47.905Z,4.20
2022-09-12T19:56:15.055Z,2.72
2022-09-12T19:58:44.373Z,3.22
2022-09-12T20:01:16.829Z,2.58
2022-09-12T20:03:45.609Z,1.77
2022-09-12T20:06:14.670Z,2.53
2022-09-12T20:08:45.715Z,4.90
2022-09-12T20:11:17.754Z,2.85
2022-09-12T20:13:45.183Z,2.20
2022-09-12T20:16:21.665Z,1.85
2022-09-12T20:18:52.319Z,3.85
2022-09-12T20:21:20.878Z,1.77
2022-09-12T20:23:47.721Z,1.35
2022-09-12T20:26:14.915Z,1.35
2022-09-12T20:28:42.067Z,2.38
2022-09-12T20:31:14.764Z,3.70
2022-09-12T20:33:41.958Z,4.35
2022-09-12T20:36:13.576Z,6.13
2022-09-12T20:38:41.024Z,3.00
2022-09-12T20:41:12.804Z,4.20
2022-09-12T20:43:40.149Z,3.25
2022-09-12T20:46:11.658Z,1.40
2022-09-12T20:48:38.988Z,2.75
2022-09-12T20:51:06.766Z,2.78
2022-09-12T20:53:35.303Z,2.55
2022-09-12T20:56:03.565Z,4.15
2022-09-12T20:58:30.333Z,3.28
2022-09-12T21:00:57.368Z,3.10
2022-09-12T21:03:25.538Z,3.75
2022-09-12T21:05:52.713Z,2.78
2022-09-12T21:08:19.501Z,2.88
2022-09-12T21:10:46.283Z,3.50
2022-09-12T21:13:13.524Z,2.85
2022-09-12T21:15:41.286Z,3.05
2022-09-12T21:18:08.177Z,3.17
2022-09-12T21:20:34.984Z,4.93
2022-09-12T21:23:01.880Z,4.55
2022-09-12T21:25:29.598Z,2.53
2022-09-12T21:27:56.592Z,4.60
2022-09-12T21:30:23.338Z,6.93
2022-09-12T21:32:50.501Z,2.10
2022-09-12T21:35:17.348Z,8.15
2022-09-12T21:37:44.157Z,2.72
2022-09-12T21:40:11.139Z,4.65
2022-09-12T21:42:37.923Z,2.88
2022-09-12T21:45:05.133Z,1.92
2022-09-12T21:47:32.229Z,4.63
2022-09-12T21:49:59.014Z,1.15
2022-09-12T21:52:25.753Z,3.13
2022-09-12T21:54:52.476Z,3.25
2022-09-12T21:57:19.238Z,3.38
2022-09-12T21:59:46.024Z,3.47
2022-09-12T22:02:13.890Z,4.70
2022-09-12T22:04:40.668Z,1.67
2022-09-12T22:07:08.290Z,1.58
2022-09-12T22:09:35.334Z,2.22
2022-09-12T22:12:02.495Z,2.88
2022-09-12T22:14:29.734Z,2.90
2022-09-12T22:16:56.905Z,1.60
2022-09-12T22:19:23.716Z,0.50
2022-09-12T22:22:09.046Z,1.80
2022-09-12T22:24:35.910Z,2.55
2022-09-12T22:27:06.316Z,2.20
2022-09-12T22:29:34.182Z,1.80
2022-09-12T22:32:01.351Z,3.58
2022-09-12T22:34:28.837Z,1.15
2022-09-12T22:36:56.165Z,0.47
2022-09-12T22:39:23.661Z,1.20
2022-09-12T22:41:50.940Z,2.17
2022-09-12T22:44:17.902Z,1.48
2022-09-12T22:46:45.154Z,1.15
2022-09-12T22:49:12.828Z,1.45
2022-09-12T22:51:39.917Z,1.45
2022-09-12T22:54:06.932Z,1.33
2022-09-12T22:56:33.867Z,0.52
2022-09-12T22:59:01.266Z,1.20
2022-09-12T23:01:28.216Z,3.72
2022-09-12T23:03:55.566Z,1.20
2022-09-12T23:06:22.251Z,0.63
2022-09-12T23:08:49.033Z,1.92
2022-09-12T23:11:17.457Z,1.85
2022-09-12T23:13:46.105Z,1.23
2022-09-12T23:16:32.189Z,0.70
2022-09-12T23:18:59.075Z,1.38
2022-09-12T23:33:05.405Z,0.93
2022-09-12T23:35:32.291Z,1.67
2022-09-12T23:37:59.011Z,1.05
2022-09-12T23:40:25.871Z,1.10
2022-09-12T23:42:52.570Z,2.25
2022-09-12T23:45:19.362Z,1.95
2022-09-12T23:47:46.095Z,1.42
2022-09-12T23:50:12.869Z,2.38
2022-09-12T23:52:39.736Z,1.77
2022-09-12T23:55:07.602Z,2.50
2022-09-12T23:57:34.382Z,1.75
